createdAt,value
2022-08-21T00:04:57.110Z,16.36
2022-08-21T00:09:58.765Z,16.24
2022-08-21T00:15:02.259Z,16.23
2022-08-21T00:20:09.149Z,16.29
2022-08-21T00:25:12.241Z,16.22
2022-08-21T00:30:22.748Z,16.29
2022-08-21T00:35:28.493Z,16.23
2022-08-21T00:40:37.423Z,16.11
2022-08-21T00:45:38.277Z,16.05
2022-08-21T00:50:51.613Z,15.99
2022-08-21T00:55:53.028Z,15.96
2022-08-21T01:00:59.926Z,15.94
2022-08-21T01:06:05.147Z,15.77
2022-08-21T01:11:06.479Z,15.56
2022-08-21T01:16:09.726Z,15.46
2022-08-21T01:21:14.756Z,15.46
2022-08-21T01:26:20.706Z,15.20
2022-08-21T01:31:24.808Z,15.24
2022-08-21T01:36:27.970Z,15.18
2022-08-21T01:41:32.226Z,15.14
2022-08-21T01:46:39.470Z,15.03
2022-08-21T01:51:40.485Z,14.74
2022-08-21T01:56:48.098Z,14.61
2022-08-21T02:01:54.283Z,14.60
2022-08-21T02:07:02.176Z,14.51
2022-08-21T02:12:03.603Z,14.56
2022-08-21T02:17:09.335Z,14.60
2022-08-21T02:22:11.229Z,14.85
2022-08-21T02:27:12.027Z,14.95
2022-08-21T02:32:15.838Z,14.90
2022-08-21T02:37:16.984Z,14.91
2022-08-21T02:42:18.510Z,15.03
2022-08-21T02:47:19.402Z,14.89
2022-08-21T02:52:21.965Z,14.84
2022-08-21T02:57:25.749Z,14.92
2022-08-21T03:02:26.794Z,14.96
2022-08-21T03:07:30.805Z,14.97
2022-08-21T03:12:31.989Z,14.88
2022-08-21T03:17:34.175Z,14.85
2022-08-21T03:22:35.527Z,14.97
2022-08-21T03:27:36.757Z,14.83
2022-08-21T03:32:41.497Z,14.87
2022-08-21T03:37:42.391Z,14.96
2022-08-21T03:42:45.595Z,14.95
2022-08-21T03:48:07.548Z,14.80
2022-08-21T03:53:17.014Z,14.75
2022-08-21T03:58:27.720Z,14.72
2022-08-21T04:03:33.054Z,14.70
2022-08-21T04:08:34.984Z,14.54
2022-08-21T04:13:43.228Z,14.34
2022-08-21T04:18:45.637Z,14.40
2022-08-21T04:23:46.825Z,14.40
2022-08-21T04:28:47.959Z,14.45
2022-08-21T04:33:57.169Z,14.48
2022-08-21T04:39:03.910Z,14.42
2022-08-21T04:44:10.158Z,14.48
2022-08-21T04:49:12.077Z,14.48
2022-08-21T04:54:22.062Z,14.56
2022-08-21T04:59:26.303Z,14.67
2022-08-21T05:04:33.640Z,14.91
2022-08-21T05:09:35.607Z,15.08
2022-08-21T05:14:36.676Z,15.22
2022-08-21T05:19:38.301Z,15.54
2022-08-21T05:24:39.759Z,15.88
2022-08-21T05:29:46.520Z,16.16
2022-08-21T05:34:56.491Z,16.48
2022-08-21T05:40:12.774Z,16.86
2022-08-21T05:45:31.622Z,16.78
2022-08-21T05:50:47.073Z,17.37
2022-08-21T05:55:51.314Z,17.78
2022-08-21T06:00:54.940Z,18.01
2022-08-21T06:05:59.724Z,17.76
2022-08-21T06:11:03.739Z,17.75
2022-08-21T06:16:16.454Z,17.95
2022-08-21T06:21:18.529Z,18.42
2022-08-21T06:26:21.020Z,18.75
2022-08-21T06:31:24.407Z,19.05
2022-08-21T06:36:25.286Z,19.45
2022-08-21T06:41:30.364Z,20.08
2022-08-21T06:46:40.293Z,20.29
2022-08-21T06:51:41.341Z,20.53
2022-08-21T06:56:42.426Z,20.73
2022-08-21T07:01:44.683Z,20.84
2022-08-21T07:06:46.139Z,20.90
2022-08-21T07:11:52.326Z,20.37
2022-08-21T07:16:56.496Z,20.50
2022-08-21T07:22:00.327Z,20.67
2022-08-21T07:27:09.424Z,20.60
2022-08-21T07:32:11.227Z,20.60
2022-08-21T07:37:12.052Z,20.79
2022-08-21T07:42:13.678Z,20.88
2022-08-21T07:47:29.549Z,21.19
2022-08-21T07:52:44.519Z,21.72
2022-08-21T07:57:46.987Z,21.94
2022-08-21T08:02:52.784Z,21.91
2022-08-21T08:07:57.123Z,22.39
2022-08-21T08:12:58.891Z,22.37
2022-08-21T08:18:00.954Z,22.15
2022-08-21T08:23:02.211Z,21.98
2022-08-21T08:28:07.333Z,21.90
2022-08-21T08:33:18.787Z,21.45
2022-08-21T08:38:24.600Z,21.87
2022-08-21T08:43:28.089Z,21.78
2022-08-21T08:49:02.868Z,22.29
2022-08-21T08:54:13.476Z,22.51
2022-08-21T08:59:40.317Z,22.92
2022-08-21T09:04:44.468Z,23.20
2022-08-21T09:10:13.041Z,22.35
2022-08-21T09:15:32.256Z,22.38
2022-08-21T09:27:27.000Z,22.61
2022-08-21T09:32:37.757Z,22.39
2022-08-21T09:37:58.455Z,23.39
2022-08-21T09:43:20.372Z,23.90
2022-08-21T09:48:27.003Z,24.04
2022-08-21T09:53:35.465Z,24.16
2022-08-21T09:58:39.431Z,24.35
2022-08-21T10:03:40.472Z,24.76
2022-08-21T10:08:41.659Z,25.23
2022-08-21T10:17:04.906Z,25.77
2022-08-21T10:22:33.047Z,26.17
2022-08-21T10:28:11.452Z,26.30
2022-08-21T10:33:31.945Z,26.76
2022-08-21T10:39:35.890Z,26.80
2022-08-21T10:45:10.080Z,26.31
2022-08-21T10:51:29.102Z,26.74
2022-08-21T10:56:36.047Z,26.78
2022-08-21T11:01:53.397Z,26.22
2022-08-21T11:07:03.795Z,26.43
2022-08-21T11:12:51.560Z,26.65
2022-08-21T11:26:02.935Z,26.61
2022-08-21T11:32:56.292Z,27.66
2022-08-21T11:45:12.863Z,27.92
2022-08-21T11:50:34.210Z,27.63
2022-08-21T11:55:49.806Z,26.45
2022-08-21T12:00:56.841Z,26.20
2022-08-21T12:06:05.834Z,26.25
2022-08-21T12:11:31.032Z,26.77
2022-08-21T12:16:44.187Z,27.14
2022-08-21T12:22:09.199Z,28.11
2022-08-21T12:27:41.763Z,27.14
2022-08-21T12:32:58.822Z,27.71
2022-08-21T12:39:54.902Z,28.02
2022-08-21T12:45:02.689Z,27.75
2022-08-21T12:50:15.221Z,27.77
2022-08-21T12:55:27.522Z,27.71
2022-08-21T13:00:29.353Z,27.18
2022-08-21T13:05:37.572Z,27.39
2022-08-21T13:10:40.971Z,27.31
2022-08-21T13:15:47.588Z,27.56
2022-08-21T13:20:49.731Z,28.31
2022-08-21T13:25:50.812Z,28.25
2022-08-21T13:30:54.689Z,28.34
2022-08-21T13:36:16.983Z,28.70
2022-08-21T13:41:25.977Z,28.78
2022-08-21T13:46:31.457Z,28.39
2022-08-21T13:51:33.533Z,28.04
2022-08-21T13:56:46.630Z,28.33
2022-08-21T14:01:59.036Z,28.92
2022-08-21T14:07:01.133Z,28.37
2022-08-21T14:12:11.295Z,28.13
2022-08-21T14:17:37.332Z,28.29
2022-08-21T14:22:48.981Z,28.28
2022-08-21T14:27:59.248Z,28.50
2022-08-21T14:33:01.980Z,28.22
2022-08-21T14:38:11.216Z,27.80
2022-08-21T14:43:12.218Z,28.07
2022-08-21T14:48:13.935Z,27.82
2022-08-21T14:53:15.299Z,27.78
2022-08-21T14:58:16.628Z,27.66
2022-08-21T15:03:18.060Z,27.72
2022-08-21T15:08:19.206Z,28.09
2022-08-21T15:13:21.066Z,27.72
2022-08-21T15:18:27.326Z,27.91
2022-08-21T15:23:28.223Z,27.84
2022-08-21T15:28:31.707Z,27.84
2022-08-21T15:33:32.994Z,27.78
2022-08-21T15:38:33.933Z,27.54
2022-08-21T15:43:53.263Z,27.31
2022-08-21T15:48:57.916Z,26.98
2022-08-21T15:54:01.161Z,26.84
2022-08-21T15:59:13.941Z,26.52
2022-08-21T16:04:21.571Z,26.47
2022-08-21T16:09:23.178Z,26.38
2022-08-21T16:14:24.353Z,26.38
2022-08-21T16:19:28.773Z,26.42
2022-08-21T16:24:29.661Z,26.21
2022-08-21T16:29:35.178Z,25.86
2022-08-21T16:34:39.609Z,25.59
2022-08-21T16:39:40.573Z,25.52
2022-08-21T16:44:42.259Z,25.39
2022-08-21T16:49:50.529Z,25.34
2022-08-21T16:54:51.397Z,25.39
2022-08-21T16:59:52.948Z,25.36
2022-08-21T17:04:53.941Z,25.41
2022-08-21T17:09:55.687Z,25.32
2022-08-21T17:15:04.435Z,25.29
2022-08-21T17:20:06.956Z,25.18
2022-08-21T17:25:08.859Z,25.07
2022-08-21T17:30:12.007Z,24.95
2022-08-21T17:35:13.979Z,24.73
2022-08-21T17:40:15.827Z,24.56
2022-08-21T17:45:19.266Z,24.49
2022-08-21T17:50:22.825Z,24.28
2022-08-21T17:55:24.347Z,24.07
2022-08-21T18:00:25.919Z,23.93
2022-08-21T18:05:28.071Z,23.65
2022-08-21T18:10:29.019Z,23.61
2022-08-21T18:15:29.963Z,23.45
2022-08-21T18:20:31.565Z,23.37
2022-08-21T18:25:33.112Z,23.28
2022-08-21T18:30:39.413Z,23.10
2022-08-21T18:35:41.508Z,23.05
2022-08-21T18:40:53.777Z,22.83
2022-08-21T18:45:57.136Z,22.67
2022-08-21T18:50:57.995Z,22.56
